sensor_id;sensor_type;location;lat;lon;timestamp;temperature;humidity
8662;DHT22;29684;47.722;9.388;2022-12-10T00:02:03;1.40;99.90
8662;DHT22;29684;47.722;9.388;2022-12-10T00:04:47;1.50;99.90
8662;DHT22;29684;47.722;9.388;2022-12-10T00:07:31;1.90;99.90
8662;DHT22;29684;47.722;9.388;2022-12-10T00:10:15;2.30;99.90
8662;DHT22;29684;47.722;9.388;2022-12-10T00:12:59;2.60;99.90
8662;DHT22;29684;47.722;9.388;2022-12-10T00:15:43;3.00;99.90
8662;DHT22;29684;47.722;9.388;2022-12-10T00:18:27;2.30;99.90
8662;DHT22;29684;47.722;9.388;2022-12-10T00:21:15;2.10;99.90
8662;DHT22;29684;47.722;9.388;2022-12-10T00:24:01;1.80;99.90
8662;DHT22;29684;47.722;9.388;2022-12-10T00:26:46;1.60;99.90
8662;DHT22;29684;47.722;9.388;2022-12-10T00:29:30;1.50;99.90
8662;DHT22;29684;47.722;9.388;2022-12-10T00:32:14;1.40;99.90
8662;DHT22;29684;47.722;9.388;2022-12-10T00:34:58;1.40;99.90
8662;DHT22;29684;47.722;9.388;2022-12-10T00:37:42;1.20;99.90
8662;DHT22;29684;47.722;9.388;2022-12-10T00:40:27;1.30;99.90
8662;DHT22;29684;47.722;9.388;2022-12-10T00:43:11;1.20;99.90
8662;DHT22;29684;47.722;9.388;2022-12-10T00:45:55;1.10;99.90
8662;DHT22;29684;47.722;9.388;2022-12-10T00:48:40;1.30;99.90
8662;DHT22;29684;47.722;9.388;2022-12-10T00:51:26;1.30;99.90
8662;DHT22;29684;47.722;9.388;2022-12-10T00:54:10;1.30;99.90
8662;DHT22;29684;47.722;9.388;2022-12-10T00:56:55;1.20;99.90
8662;DHT22;29684;47.722;9.388;2022-12-10T00:59:39;1.10;99.90
8662;DHT22;29684;47.722;9.388;2022-12-10T01:02:23;1.00;99.90
8662;DHT22;29684;47.722;9.388;2022-12-10T01:05:08;0.90;99.90
8662;DHT22;29684;47.722;9.388;2022-12-10T01:07:52;0.90;99.90
8662;DHT22;29684;47.722;9.388;2022-12-10T01:10:37;1.10;99.90
8662;DHT22;29684;47.722;9.388;2022-12-10T01:13:22;1.00;99.90
8662;DHT22;29684;47.722;9.388;2022-12-10T01:16:07;1.00;99.90
8662;DHT22;29684;47.722;9.388;2022-12-10T01:18:56;0.90;99.90
8662;DHT22;29684;47.722;9.388;2022-12-10T01:21:40;0.80;99.90
8662;DHT22;29684;47.722;9.388;2022-12-10T01:24:26;0.90;99.90
8662;DHT22;29684;47.722;9.388;2022-12-10T01:27:11;0.80;99.90
8662;DHT22;29684;47.722;9.388;2022-12-10T01:29:55;0.80;99.90
8662;DHT22;29684;47.722;9.388;2022-12-10T01:32:39;0.80;99.90
8662;DHT22;29684;47.722;9.388;2022-12-10T01:35:23;0.90;99.90
8662;DHT22;29684;47.722;9.388;2022-12-10T01:38:07;0.80;99.90
8662;DHT22;29684;47.722;9.388;2022-12-10T01:40:51;0.90;99.90
8662;DHT22;29684;47.722;9.388;2022-12-10T01:44:01;0.90;99.90
8662;DHT22;29684;47.722;9.388;2022-12-10T01:46:48;0.90;99.90
8662;DHT22;29684;47.722;9.388;2022-12-10T01:49:35;1.00;99.90
8662;DHT22;29684;47.722;9.388;2022-12-10T01:52:19;0.90;99.90
8662;DHT22;29684;47.722;9.388;2022-12-10T01:55:34;0.90;99.90
8662;DHT22;29684;47.722;9.388;2022-12-10T01:58:13;1.00;99.90
8662;DHT22;29684;47.722;9.388;2022-12-10T02:04:06;1.10;99.90
8662;DHT22;29684;47.722;9.388;2022-12-10T02:06:59;1.20;99.90
8662;DHT22;29684;47.722;9.388;2022-12-10T02:10:11;1.20;99.90
8662;DHT22;29684;47.722;9.388;2022-12-10T02:16:14;1.20;99.90
8662;DHT22;29684;47.722;9.388;2022-12-10T02:21:55;1.00;99.90
8662;DHT22;29684;47.722;9.388;2022-12-10T02:24:41;0.90;99.90
8662;DHT22;29684;47.722;9.388;2022-12-10T02:28:01;0.90;99.90
8662;DHT22;29684;47.722;9.388;2022-12-10T02:30:47;0.80;99.90
8662;DHT22;29684;47.722;9.388;2022-12-10T02:33:33;0.70;99.90
8662;DHT22;29684;47.722;9.388;2022-12-10T02:36:20;0.60;99.90
8662;DHT22;29684;47.722;9.388;2022-12-10T02:39:09;0.60;99.90
8662;DHT22;29684;47.722;9.388;2022-12-10T02:41:54;0.70;99.90
8662;DHT22;29684;47.722;9.388;2022-12-10T02:44:40;0.70;99.90
8662;DHT22;29684;47.722;9.388;2022-12-10T02:47:26;0.80;99.90
8662;DHT22;29684;47.722;9.388;2022-12-10T02:50:11;0.80;99.90
8662;DHT22;29684;47.722;9.388;2022-12-10T02:52:56;0.80;99.90
8662;DHT22;29684;47.722;9.388;2022-12-10T02:59:30;0.90;99.90
8662;DHT22;29684;47.722;9.388;2022-12-10T03:08:40;1.00;99.90
8662;DHT22;29684;47.722;9.388;2022-12-10T03:11:25;1.00;99.90
8662;DHT22;29684;47.722;9.388;2022-12-10T03:14:13;0.90;99.90
8662;DHT22;29684;47.722;9.388;2022-12-10T03:17:01;1.00;99.90
8662;DHT22;29684;47.722;9.388;2022-12-10T03:19:49;1.10;99.90
8662;DHT22;29684;47.722;9.388;2022-12-10T03:22:35;1.10;99.90
8662;DHT22;29684;47.722;9.388;2022-12-10T03:25:24;1.00;99.90
8662;DHT22;29684;47.722;9.388;2022-12-10T03:28:10;1.10;99.90
8662;DHT22;29684;47.722;9.388;2022-12-10T03:30:55;0.90;99.90
8662;DHT22;29684;47.722;9.388;2022-12-10T03:33:40;1.20;99.90
8662;DHT22;29684;47.722;9.388;2022-12-10T03:36:26;1.30;99.90
8662;DHT22;29684;47.722;9.388;2022-12-10T03:39:11;1.30;99.90
8662;DHT22;29684;47.722;9.388;2022-12-10T03:41:56;1.20;99.90
8662;DHT22;29684;47.722;9.388;2022-12-10T03:44:40;1.30;99.90
8662;DHT22;29684;47.722;9.388;2022-12-10T03:47:24;1.30;99.90
8662;DHT22;29684;47.722;9.388;2022-12-10T03:50:09;1.30;99.90
8662;DHT22;29684;47.722;9.388;2022-12-10T03:52:53;1.40;99.90
8662;DHT22;29684;47.722;9.388;2022-12-10T03:55:38;1.20;99.90
8662;DHT22;29684;47.722;9.388;2022-12-10T03:58:22;1.00;99.90
8662;DHT22;29684;47.722;9.388;2022-12-10T04:01:06;1.30;99.90
8662;DHT22;29684;47.722;9.388;2022-12-10T04:03:50;0.90;99.90
8662;DHT22;29684;47.722;9.388;2022-12-10T04:06:36;1.30;99.90
8662;DHT22;29684;47.722;9.388;2022-12-10T04:09:21;1.40;99.90
8662;DHT22;29684;47.722;9.388;2022-12-10T04:12:05;3.20;99.90
8662;DHT22;29684;47.722;9.388;2022-12-10T04:14:50;1.30;99.90
8662;DHT22;29684;47.722;9.388;2022-12-10T04:17:53;1.30;99.90
8662;DHT22;29684;47.722;9.388;2022-12-10T04:20:37;1.30;99.90
8662;DHT22;29684;47.722;9.388;2022-12-10T04:23:40;1.10;99.90
8662;DHT22;29684;47.722;9.388;2022-12-10T04:26:43;1.00;99.90
8662;DHT22;29684;47.722;9.388;2022-12-10T04:29:36;1.00;99.90
8662;DHT22;29684;47.722;9.388;2022-12-10T04:32:22;1.10;99.90
8662;DHT22;29684;47.722;9.388;2022-12-10T04:35:07;1.10;99.90
8662;DHT22;29684;47.722;9.388;2022-12-10T04:37:51;1.20;99.90
8662;DHT22;29684;47.722;9.388;2022-12-10T04:40:35;1.10;99.90
8662;DHT22;29684;47.722;9.388;2022-12-10T04:43:20;1.20;99.90
8662;DHT22;29684;47.722;9.388;2022-12-10T04:46:04;1.20;99.90
8662;DHT22;29684;47.722;9.388;2022-12-10T04:48:48;1.30;99.90
8662;DHT22;29684;47.722;9.388;2022-12-10T04:51:32;1.30;99.90
8662;DHT22;29684;47.722;9.388;2022-12-10T04:54:16;1.20;99.90
8662;DHT22;29684;47.722;9.388;2022-12-10T04:57:00;1.30;99.90
8662;DHT22;29684;47.722;9.388;2022-12-10T04:59:44;1.20;99.90
8662;DHT22;29684;47.722;9.388;2022-12-10T05:02:29;1.20;99.90
8662;DHT22;29684;47.722;9.388;2022-12-10T05:05:13;1.30;99.90
8662;DHT22;29684;47.722;9.388;2022-12-10T05:07:57;1.40;99.90
8662;DHT22;29684;47.722;9.388;2022-12-10T05:10:40;1.30;99.90
8662;DHT22;29684;47.722;9.388;2022-12-10T05:13:25;1.30;99.90
8662;DHT22;29684;47.722;9.388;2022-12-10T05:16:10;1.30;99.90
8662;DHT22;29684;47.722;9.388;2022-12-10T05:18:55;1.20;99.90
8662;DHT22;29684;47.722;9.388;2022-12-10T05:21:39;1.20;99.90
8662;DHT22;29684;47.722;9.388;2022-12-10T05:24:42;1.20;99.90
8662;DHT22;29684;47.722;9.388;2022-12-10T05:27:31;1.20;99.90
8662;DHT22;29684;47.722;9.388;2022-12-10T05:30:16;1.40;99.90
8662;DHT22;29684;47.722;9.388;2022-12-10T05:33:00;1.30;99.90
8662;DHT22;29684;47.722;9.388;2022-12-10T05:35:51;1.20;99.90
8662;DHT22;29684;47.722;9.388;2022-12-10T05:38:35;1.30;99.90
8662;DHT22;29684;47.722;9.388;2022-12-10T05:41:25;1.30;99.90
8662;DHT22;29684;47.722;9.388;2022-12-10T05:44:10;1.40;99.90
8662;DHT22;29684;47.722;9.388;2022-12-10T05:46:55;1.40;99.90
8662;DHT22;29684;47.722;9.388;2022-12-10T05:49:39;1.80;99.90
8662;DHT22;29684;47.722;9.388;2022-12-10T05:52:23;1.30;99.90
8662;DHT22;29684;47.722;9.388;2022-12-10T05:55:07;1.40;99.90
8662;DHT22;29684;47.722;9.388;2022-12-10T05:57:51;1.30;99.90
8662;DHT22;29684;47.722;9.388;2022-12-10T06:00:39;1.30;99.90
8662;DHT22;29684;47.722;9.388;2022-12-10T06:03:25;1.30;99.90
8662;DHT22;29684;47.722;9.388;2022-12-10T06:06:10;1.30;99.90
8662;DHT22;29684;47.722;9.388;2022-12-10T06:08:55;1.40;99.90
8662;DHT22;29684;47.722;9.388;2022-12-10T06:11:40;1.30;99.90
8662;DHT22;29684;47.722;9.388;2022-12-10T06:14:25;1.30;99.90
8662;DHT22;29684;47.722;9.388;2022-12-10T06:17:10;1.30;99.90
8662;DHT22;29684;47.722;9.388;2022-12-10T06:19:54;1.20;99.90
8662;DHT22;29684;47.722;9.388;2022-12-10T06:22:38;1.30;99.90
8662;DHT22;29684;47.722;9.388;2022-12-10T06:25:24;1.30;99.90
8662;DHT22;29684;47.722;9.388;2022-12-10T06:28:09;1.20;99.90
8662;DHT22;29684;47.722;9.388;2022-12-10T06:30:53;1.20;99.90
8662;DHT22;29684;47.722;9.388;2022-12-10T06:33:37;1.30;99.90
8662;DHT22;29684;47.722;9.388;2022-12-10T06:36:22;1.30;99.90
8662;DHT22;29684;47.722;9.388;2022-12-10T06:39:06;1.30;99.90
8662;DHT22;29684;47.722;9.388;2022-12-10T06:41:50;1.20;99.90
8662;DHT22;29684;47.722;9.388;2022-12-10T06:44:34;1.10;99.90
8662;DHT22;29684;47.722;9.388;2022-12-10T06:47:18;1.20;99.90
8662;DHT22;29684;47.722;9.388;2022-12-10T06:50:03;2.40;99.90
8662;DHT22;29684;47.722;9.388;2022-12-10T06:52:47;1.20;99.90
8662;DHT22;29684;47.722;9.388;2022-12-10T06:55:31;1.30;99.90
8662;DHT22;29684;47.722;9.388;2022-12-10T06:58:15;1.10;99.90
8662;DHT22;29684;47.722;9.388;2022-12-10T07:01:15;1.10;99.90
8662;DHT22;29684;47.722;9.388;2022-12-10T07:34:04;1.00;99.90
8662;DHT22;29684;47.722;9.388;2022-12-10T07:36:48;1.00;99.90
8662;DHT22;29684;47.722;9.388;2022-12-10T07:39:32;1.00;99.90
8662;DHT22;29684;47.722;9.388;2022-12-10T07:42:16;1.00;99.90
8662;DHT22;29684;47.722;9.388;2022-12-10T07:45:00;1.10;99.90
8662;DHT22;29684;47.722;9.388;2022-12-10T07:47:44;1.00;99.90
8662;DHT22;29684;47.722;9.388;2022-12-10T07:50:29;1.10;99.90
8662;DHT22;29684;47.722;9.388;2022-12-10T07:53:13;2.00;99.90
8662;DHT22;29684;47.722;9.388;2022-12-10T07:55:58;1.20;99.90
8662;DHT22;29684;47.722;9.388;2022-12-10T07:58:43;1.20;99.90
8662;DHT22;29684;47.722;9.388;2022-12-10T08:01:27;1.80;99.90
8662;DHT22;29684;47.722;9.388;2022-12-10T08:04:12;1.10;99.90
8662;DHT22;29684;47.722;9.388;2022-12-10T08:06:56;1.20;99.90
8662;DHT22;29684;47.722;9.388;2022-12-10T08:09:43;1.20;99.90
8662;DHT22;29684;47.722;9.388;2022-12-10T08:12:27;1.30;99.90
8662;DHT22;29684;47.722;9.388;2022-12-10T08:15:11;1.30;99.90
8662;DHT22;29684;47.722;9.388;2022-12-10T08:17:59;1.30;99.90
8662;DHT22;29684;47.722;9.388;2022-12-10T08:20:46;1.40;99.90
8662;DHT22;29684;47.722;9.388;2022-12-10T08:23:30;1.30;99.90
8662;DHT22;29684;47.722;9.388;2022-12-10T08:26:17;1.40;99.90
8662;DHT22;29684;47.722;9.388;2022-12-10T08:29:01;1.10;99.90
8662;DHT22;29684;47.722;9.388;2022-12-10T08:31:45;1.10;99.90
8662;DHT22;29684;47.722;9.388;2022-12-10T08:34:29;1.20;99.90
8662;DHT22;29684;47.722;9.388;2022-12-10T08:37:13;1.30;99.90
8662;DHT22;29684;47.722;9.388;2022-12-10T08:39:57;1.30;99.90
8662;DHT22;29684;47.722;9.388;2022-12-10T08:42:42;1.40;99.90
8662;DHT22;29684;47.722;9.388;2022-12-10T08:45:27;1.30;99.90
8662;DHT22;29684;47.722;9.388;2022-12-10T08:48:12;1.20;99.90
8662;DHT22;29684;47.722;9.388;2022-12-10T08:50:57;1.30;99.90
8662;DHT22;29684;47.722;9.388;2022-12-10T08:53:42;1.20;99.90
8662;DHT22;29684;47.722;9.388;2022-12-10T08:56:27;1.20;99.90
8662;DHT22;29684;47.722;9.388;2022-12-10T08:59:13;1.20;99.90
8662;DHT22;29684;47.722;9.388;2022-12-10T09:01:58;1.30;99.90
8662;DHT22;29684;47.722;9.388;2022-12-10T09:04:42;1.30;99.90
8662;DHT22;29684;47.722;9.388;2022-12-10T09:07:29;1.30;99.90
8662;DHT22;29684;47.722;9.388;2022-12-10T09:10:13;1.30;99.90
8662;DHT22;29684;47.722;9.388;2022-12-10T09:12:58;1.40;99.90
8662;DHT22;29684;47.722;9.388;2022-12-10T09:15:49;1.30;99.90
8662;DHT22;29684;47.722;9.388;2022-12-10T09:18:35;1.20;99.90
8662;DHT22;29684;47.722;9.388;2022-12-10T09:21:19;1.30;99.90
8662;DHT22;29684;47.722;9.388;2022-12-10T09:24:04;1.30;99.90
8662;DHT22;29684;47.722;9.388;2022-12-10T09:26:51;1.20;99.90
8662;DHT22;29684;47.722;9.388;2022-12-10T09:29:35;1.20;99.90
8662;DHT22;29684;47.722;9.388;2022-12-10T09:32:20;1.30;99.90
8662;DHT22;29684;47.722;9.388;2022-12-10T09:35:05;1.30;99.90
8662;DHT22;29684;47.722;9.388;2022-12-10T09:37:50;1.40;99.90
8662;DHT22;29684;47.722;9.388;2022-12-10T09:40:56;1.40;99.90
8662;DHT22;29684;47.722;9.388;2022-12-10T09:44:05;1.60;99.90
8662;DHT22;29684;47.722;9.388;2022-12-10T09:46:54;1.60;99.90
8662;DHT22;29684;47.722;9.388;2022-12-10T09:50:23;1.50;99.90
8662;DHT22;29684;47.722;9.388;2022-12-10T09:53:02;1.70;99.90
8662;DHT22;29684;47.722;9.388;2022-12-10T09:55:51;1.40;99.90
8662;DHT22;29684;47.722;9.388;2022-12-10T09:58:39;1.40;99.90
8662;DHT22;29684;47.722;9.388;2022-12-10T10:01:29;1.20;99.90
8662;DHT22;29684;47.722;9.388;2022-12-10T10:04:18;1.20;99.90
8662;DHT22;29684;47.722;9.388;2022-12-10T10:07:05;2.50;99.90
8662;DHT22;29684;47.722;9.388;2022-12-10T10:10:05;1.20;99.90
8662;DHT22;29684;47.722;9.388;2022-12-10T10:12:53;1.20;99.90
8662;DHT22;29684;47.722;9.388;2022-12-10T10:15:44;1.10;99.90
8662;DHT22;29684;47.722;9.388;2022-12-10T10:18:34;1.00;99.90
8662;DHT22;29684;47.722;9.388;2022-12-10T10:21:24;1.00;99.90
8662;DHT22;29684;47.722;9.388;2022-12-10T10:24:18;1.00;99.90
8662;DHT22;29684;47.722;9.388;2022-12-10T10:27:22;1.00;99.90
8662;DHT22;29684;47.722;9.388;2022-12-10T10:30:15;0.90;99.90
8662;DHT22;29684;47.722;9.388;2022-12-10T10:33:08;1.50;99.90
8662;DHT22;29684;47.722;9.388;2022-12-10T10:35:55;0.80;99.90
8662;DHT22;29684;47.722;9.388;2022-12-10T10:38:47;0.80;99.90
8662;DHT22;29684;47.722;9.388;2022-12-10T10:41:36;0.80;99.90
8662;DHT22;29684;47.722;9.388;2022-12-10T10:44:26;0.80;99.90
8662;DHT22;29684;47.722;9.388;2022-12-10T10:47:44;0.80;99.90
8662;DHT22;29684;47.722;9.388;2022-12-10T10:50:29;0.80;99.90
8662;DHT22;29684;47.722;9.388;2022-12-10T10:53:27;1.00;99.90
8662;DHT22;29684;47.722;9.388;2022-12-10T10:56:27;1.00;99.90
8662;DHT22;29684;47.722;9.388;2022-12-10T11:02:17;1.10;99.90
8662;DHT22;29684;47.722;9.388;2022-12-10T11:05:21;1.20;99.90
8662;DHT22;29684;47.722;9.388;2022-12-10T11:08:16;1.30;99.90
8662;DHT22;29684;47.722;9.388;2022-12-10T11:11:11;1.10;99.90
8662;DHT22;29684;47.722;9.388;2022-12-10T11:14:20;1.10;99.90
8662;DHT22;29684;47.722;9.388;2022-12-10T11:22:37;1.00;99.90
8662;DHT22;29684;47.722;9.388;2022-12-10T11:29:17;1.10;99.90
8662;DHT22;29684;47.722;9.388;2022-12-10T11:32:01;1.30;99.90
8662;DHT22;29684;47.722;9.388;2022-12-10T11:38:23;1.10;99.90
8662;DHT22;29684;47.722;9.388;2022-12-10T11:44:26;1.20;99.90
8662;DHT22;29684;47.722;9.388;2022-12-10T11:50:38;1.20;99.90
8662;DHT22;29684;47.722;9.388;2022-12-10T12:00:22;1.00;99.90
8662;DHT22;29684;47.722;9.388;2022-12-10T12:12:03;0.80;99.90
8662;DHT22;29684;47.722;9.388;2022-12-10T12:15:25;0.70;99.90
8662;DHT22;29684;47.722;9.388;2022-12-10T12:21:00;0.60;99.90
8662;DHT22;29684;47.722;9.388;2022-12-10T12:23:52;0.60;99.90
8662;DHT22;29684;47.722;9.388;2022-12-10T12:27:00;0.70;99.90
8662;DHT22;29684;47.722;9.388;2022-12-10T12:32:49;0.50;99.90
8662;DHT22;29684;47.722;9.388;2022-12-10T12:35:43;0.50;99.90
8662;DHT22;29684;47.722;9.388;2022-12-10T12:38:31;0.60;99.90
8662;DHT22;29684;47.722;9.388;2022-12-10T12:41:41;0.70;99.90
8662;DHT22;29684;47.722;9.388;2022-12-10T12:53:51;0.40;99.90
8662;DHT22;29684;47.722;9.388;2022-12-10T12:59:54;0.30;99.90
8662;DHT22;29684;47.722;9.388;2022-12-10T13:02:44;0.30;99.90
8662;DHT22;29684;47.722;9.388;2022-12-10T13:05:36;0.30;99.90
8662;DHT22;29684;47.722;9.388;2022-12-10T13:11:16;0.30;99.90
8662;DHT22;29684;47.722;9.388;2022-12-10T13:14:13;0.30;99.90
8662;DHT22;29684;47.722;9.388;2022-12-10T13:17:08;0.20;99.90
8662;DHT22;29684;47.722;9.388;2022-12-10T13:19:53;0.40;99.90
8662;DHT22;29684;47.722;9.388;2022-12-10T13:28:49;0.30;99.90
8662;DHT22;29684;47.722;9.388;2022-12-10T13:31:36;0.20;99.90
8662;DHT22;29684;47.722;9.388;2022-12-10T13:34:25;0.20;99.90
8662;DHT22;29684;47.722;9.388;2022-12-10T13:43:19;0.10;99.90
8662;DHT22;29684;47.722;9.388;2022-12-10T13:49:17;0.10;99.90
8662;DHT22;29684;47.722;9.388;2022-12-10T13:52:07;0.00;99.90
8662;DHT22;29684;47.722;9.388;2022-12-10T13:58:32;0.00;99.90
8662;DHT22;29684;47.722;9.388;2022-12-10T14:01:33;0.00;99.90
8662;DHT22;29684;47.722;9.388;2022-12-10T14:07:31;0.00;99.90
8662;DHT22;29684;47.722;9.388;2022-12-10T14:10:17;0.10;99.90
8662;DHT22;29684;47.722;9.388;2022-12-10T14:13:04;0.50;99.90
8662;DHT22;29684;47.722;9.388;2022-12-10T14:15:54;0.00;99.90
8662;DHT22;29684;47.722;9.388;2022-12-10T14:18:42;0.00;99.90
8662;DHT22;29684;47.722;9.388;2022-12-10T14:21:31;-0.10;99.90
8662;DHT22;29684;47.722;9.388;2022-12-10T14:24:32;-0.10;99.90
8662;DHT22;29684;47.722;9.388;2022-12-10T14:27:18;-0.10;99.90
8662;DHT22;29684;47.722;9.388;2022-12-10T14:33:22;-0.20;99.90
8662;DHT22;29684;47.722;9.388;2022-12-10T14:36:15;0.00;99.90
8662;DHT22;29684;47.722;9.388;2022-12-10T14:39:00;-0.10;99.90
8662;DHT22;29684;47.722;9.388;2022-12-10T14:41:47;-0.10;99.90
8662;DHT22;29684;47.722;9.388;2022-12-10T14:44:35;0.00;99.90
8662;DHT22;29684;47.722;9.388;2022-12-10T14:47:21;-0.10;99.90
8662;DHT22;29684;47.722;9.388;2022-12-10T14:50:10;0.00;99.90
8662;DHT22;29684;47.722;9.388;2022-12-10T14:52:55;-0.10;99.90
8662;DHT22;29684;47.722;9.388;2022-12-10T14:55:40;-0.20;99.90
8662;DHT22;29684;47.722;9.388;2022-12-10T15:01:26;-0.30;99.90
8662;DHT22;29684;47.722;9.388;2022-12-10T15:04:19;-0.20;99.90
8662;DHT22;29684;47.722;9.388;2022-12-10T15:07:05;-0.30;99.90
8662;DHT22;29684;47.722;9.388;2022-12-10T15:09:53;-0.20;99.90
8662;DHT22;29684;47.722;9.388;2022-12-10T15:12:42;-0.30;99.90
8662;DHT22;29684;47.722;9.388;2022-12-10T15:15:33;-0.30;99.90
8662;DHT22;29684;47.722;9.388;2022-12-10T15:18:37;-0.30;99.90
8662;DHT22;29684;47.722;9.388;2022-12-10T15:21:24;-0.30;99.90
8662;DHT22;29684;47.722;9.388;2022-12-10T15:24:16;-0.30;99.90
8662;DHT22;29684;47.722;9.388;2022-12-10T15:27:02;-0.40;99.90
8662;DHT22;29684;47.722;9.388;2022-12-10T15:29:57;-0.40;99.90
8662;DHT22;29684;47.722;9.388;2022-12-10T15:32:47;-0.40;99.90
8662;DHT22;29684;47.722;9.388;2022-12-10T15:35:35;-0.40;99.90
8662;DHT22;29684;47.722;9.388;2022-12-10T15:38:20;-0.40;99.90
8662;DHT22;29684;47.722;9.388;2022-12-10T15:41:40;-0.40;99.90
8662;DHT22;29684;47.722;9.388;2022-12-10T15:47:19;-0.50;99.90
8662;DHT22;29684;47.722;9.388;2022-12-10T15:50:05;-0.50;99.90
8662;DHT22;29684;47.722;9.388;2022-12-10T15:52:50;-0.50;99.90
8662;DHT22;29684;47.722;9.388;2022-12-10T15:55:35;-0.50;99.90
8662;DHT22;29684;47.722;9.388;2022-12-10T15:58:19;-0.50;99.90
8662;DHT22;29684;47.722;9.388;2022-12-10T16:01:03;-0.40;99.90
8662;DHT22;29684;47.722;9.388;2022-12-10T16:03:47;-0.50;99.90
8662;DHT22;29684;47.722;9.388;2022-12-10T16:06:31;-0.40;99.90
8662;DHT22;29684;47.722;9.388;2022-12-10T16:09:15;-0.40;99.90
8662;DHT22;29684;47.722;9.388;2022-12-10T16:11:59;-0.50;99.90
8662;DHT22;29684;47.722;9.388;2022-12-10T16:14:52;-0.50;99.90
8662;DHT22;29684;47.722;9.388;2022-12-10T16:17:40;-0.60;99.90
8662;DHT22;29684;47.722;9.388;2022-12-10T16:20:29;-0.60;99.90
8662;DHT22;29684;47.722;9.388;2022-12-10T16:23:13;-0.50;99.90
8662;DHT22;29684;47.722;9.388;2022-12-10T16:25:58;-0.60;99.90
8662;DHT22;29684;47.722;9.388;2022-12-10T16:28:44;-0.60;99.90
8662;DHT22;29684;47.722;9.388;2022-12-10T16:31:28;-0.60;99.90
8662;DHT22;29684;47.722;9.388;2022-12-10T16:34:13;-0.50;99.90
8662;DHT22;29684;47.722;9.388;2022-12-10T16:36:58;-0.60;99.90
8662;DHT22;29684;47.722;9.388;2022-12-10T16:39:44;-0.50;99.90
8662;DHT22;29684;47.722;9.388;2022-12-10T16:42:28;-0.60;99.90
8662;DHT22;29684;47.722;9.388;2022-12-10T16:48:05;-0.40;99.90
8662;DHT22;29684;47.722;9.388;2022-12-10T16:50:52;-0.80;99.90
8662;DHT22;29684;47.722;9.388;2022-12-10T16:53:41;-0.60;99.90
8662;DHT22;29684;47.722;9.388;2022-12-10T16:56:26;-0.70;99.90
8662;DHT22;29684;47.722;9.388;2022-12-10T16:59:10;-0.70;99.90
8662;DHT22;29684;47.722;9.388;2022-12-10T17:01:55;-0.70;99.90
8662;DHT22;29684;47.722;9.388;2022-12-10T17:04:40;-0.70;99.90
8662;DHT22;29684;47.722;9.388;2022-12-10T17:07:24;-0.80;99.90
8662;DHT22;29684;47.722;9.388;2022-12-10T17:10:13;-0.80;99.90
8662;DHT22;29684;47.722;9.388;2022-12-10T17:12:57;-0.80;99.90
8662;DHT22;29684;47.722;9.388;2022-12-10T17:15:42;-0.80;99.90
8662;DHT22;29684;47.722;9.388;2022-12-10T17:18:27;-0.80;99.90
8662;DHT22;29684;47.722;9.388;2022-12-10T17:21:12;-0.70;99.90
8662;DHT22;29684;47.722;9.388;2022-12-10T17:23:56;-0.70;99.90
8662;DHT22;29684;47.722;9.388;2022-12-10T17:26:44;-0.80;99.90
8662;DHT22;29684;47.722;9.388;2022-12-10T17:32:15;-0.80;99.90
8662;DHT22;29684;47.722;9.388;2022-12-10T17:34:59;-0.80;99.90
8662;DHT22;29684;47.722;9.388;2022-12-10T17:37:44;-0.80;99.90
8662;DHT22;29684;47.722;9.388;2022-12-10T17:40:28;-0.80;99.90
8662;DHT22;29684;47.722;9.388;2022-12-10T17:43:13;-0.80;99.90
8662;DHT22;29684;47.722;9.388;2022-12-10T17:45:59;-0.80;99.90
8662;DHT22;29684;47.722;9.388;2022-12-10T17:48:43;-0.70;99.90
8662;DHT22;29684;47.722;9.388;2022-12-10T17:51:28;-0.70;99.90
8662;DHT22;29684;47.722;9.388;2022-12-10T17:54:12;-0.70;99.90
8662;DHT22;29684;47.722;9.388;2022-12-10T17:56:57;-0.60;99.90
8662;DHT22;29684;47.722;9.388;2022-12-10T17:59:41;-0.70;99.90
8662;DHT22;29684;47.722;9.388;2022-12-10T18:02:26;-0.40;99.90
8662;DHT22;29684;47.722;9.388;2022-12-10T18:05:10;-0.50;99.90
8662;DHT22;29684;47.722;9.388;2022-12-10T18:07:55;-0.60;99.90
8662;DHT22;29684;47.722;9.388;2022-12-10T18:10:39;-0.60;99.90
8662;DHT22;29684;47.722;9.388;2022-12-10T18:13:23;-0.60;99.90
8662;DHT22;29684;47.722;9.388;2022-12-10T18:16:18;-0.70;99.90
8662;DHT22;29684;47.722;9.388;2022-12-10T18:19:10;-0.70;99.90
8662;DHT22;29684;47.722;9.388;2022-12-10T18:21:55;-0.70;99.90
8662;DHT22;29684;47.722;9.388;2022-12-10T18:24:39;-0.70;99.90
8662;DHT22;29684;47.722;9.388;2022-12-10T18:27:24;-0.60;99.90
8662;DHT22;29684;47.722;9.388;2022-12-10T18:30:13;-0.60;99.90
8662;DHT22;29684;47.722;9.388;2022-12-10T18:32:57;-0.60;99.90
8662;DHT22;29684;47.722;9.388;2022-12-10T18:35:43;-0.60;99.90
8662;DHT22;29684;47.722;9.388;2022-12-10T18:38:27;-0.60;99.90
8662;DHT22;29684;47.722;9.388;2022-12-10T18:41:13;-0.60;99.90
8662;DHT22;29684;47.722;9.388;2022-12-10T18:43:58;-0.70;99.90
8662;DHT22;29684;47.722;9.388;2022-12-10T18:46:43;-0.70;99.90
8662;DHT22;29684;47.722;9.388;2022-12-10T18:49:27;-0.70;99.90
8662;DHT22;29684;47.722;9.388;2022-12-10T18:52:13;-0.70;99.90
8662;DHT22;29684;47.722;9.388;2022-12-10T18:54:59;-0.60;99.90
8662;DHT22;29684;47.722;9.388;2022-12-10T18:57:44;-0.80;99.90
8662;DHT22;29684;47.722;9.388;2022-12-10T19:00:28;-0.70;99.90
8662;DHT22;29684;47.722;9.388;2022-12-10T19:03:12;-0.70;99.90
8662;DHT22;29684;47.722;9.388;2022-12-10T19:05:56;-0.80;99.90
8662;DHT22;29684;47.722;9.388;2022-12-10T19:08:41;-0.80;99.90
8662;DHT22;29684;47.722;9.388;2022-12-10T19:11:26;-0.70;99.90
8662;DHT22;29684;47.722;9.388;2022-12-10T19:14:10;-0.80;99.90
8662;DHT22;29684;47.722;9.388;2022-12-10T19:16:54;-0.90;99.90
8662;DHT22;29684;47.722;9.388;2022-12-10T19:19:38;-0.90;99.90
8662;DHT22;29684;47.722;9.388;2022-12-10T19:22:22;-0.80;99.90
8662;DHT22;29684;47.722;9.388;2022-12-10T19:25:07;-0.80;99.90
8662;DHT22;29684;47.722;9.388;2022-12-10T19:27:51;-0.80;99.90
8662;DHT22;29684;47.722;9.388;2022-12-10T19:30:35;-0.90;99.90
8662;DHT22;29684;47.722;9.388;2022-12-10T19:33:20;-0.80;99.90
8662;DHT22;29684;47.722;9.388;2022-12-10T19:36:19;-1.00;99.90
8662;DHT22;29684;47.722;9.388;2022-12-10T19:39:03;-0.90;99.90
8662;DHT22;29684;47.722;9.388;2022-12-10T19:41:49;-0.90;99.90
8662;DHT22;29684;47.722;9.388;2022-12-10T19:44:33;-0.80;99.90
8662;DHT22;29684;47.722;9.388;2022-12-10T19:47:17;-0.90;99.90
8662;DHT22;29684;47.722;9.388;2022-12-10T19:50:01;-0.90;99.90
8662;DHT22;29684;47.722;9.388;2022-12-10T19:52:49;-0.90;99.90
8662;DHT22;29684;47.722;9.388;2022-12-10T19:55:33;-0.70;99.90
8662;DHT22;29684;47.722;9.388;2022-12-10T19:58:17;-0.90;99.90
8662;DHT22;29684;47.722;9.388;2022-12-10T20:01:02;-0.80;99.90
8662;DHT22;29684;47.722;9.388;2022-12-10T20:03:49;-0.80;99.90
8662;DHT22;29684;47.722;9.388;2022-12-10T20:06:38;-0.90;99.90
8662;DHT22;29684;47.722;9.388;2022-12-10T20:09:25;-0.90;99.90
8662;DHT22;29684;47.722;9.388;2022-12-10T20:12:14;-1.00;99.90
8662;DHT22;29684;47.722;9.388;2022-12-10T20:15:03;-0.90;99.90
8662;DHT22;29684;47.722;9.388;2022-12-10T20:17:50;-0.90;99.90
8662;DHT22;29684;47.722;9.388;2022-12-10T20:20:37;-1.00;99.90
8662;DHT22;29684;47.722;9.388;2022-12-10T20:23:23;-1.00;99.90
8662;DHT22;29684;47.722;9.388;2022-12-10T20:26:20;-0.90;99.90
8662;DHT22;29684;47.722;9.388;2022-12-10T20:29:17;-1.00;99.90
8662;DHT22;29684;47.722;9.388;2022-12-10T20:32:04;-0.90;99.90
8662;DHT22;29684;47.722;9.388;2022-12-10T20:34:50;-1.00;99.90